Time;durP1;ratioP1;P1;durP2;ratioP2;P2;SDS_P1;SDS_P2;PMS_P1;PMS_P2;Temp;Humidity;BMP_temperature;BMP_pressure;BME280_temperature;BME280_humidity;BME280_pressure;Samples;Min_cycle;Max_cycle;Signal;HPM_P1;HPM_P2
2022/04/06 00:01:20;;;;;;;0.43;0.43;;;;;;;12.34;65.20;100474.94;5038258;28;20033;-79
2022/04/06 00:03:47;;;;;;;0.00;0.00;;;;;;;12.33;64.81;100470.56;5031898;28;20048;-78
2022/04/06 00:06:13;;;;;;;0.20;0.20;;;;;;;12.36;65.27;100475.75;5045403;28;20025;-78
2022/04/06 00:08:39;;;;;;;1.73;0.82;;;;;;;12.26;65.08;100473.41;5041287;28;20028;-79
2022/04/06 00:11:05;;;;;;;0.10;0.10;;;;;;;12.32;65.17;100468.81;5033615;28;20034;-79
2022/04/06 00:13:31;;;;;;;0.10;0.10;;;;;;;12.32;65.71;100468.81;5028902;28;20037;-79
2022/04/06 00:15:58;;;;;;;0.10;0.10;;;;;;;12.30;64.88;100459.09;5036636;28;20121;-80
2022/04/06 00:18:24;;;;;;;0.10;0.10;;;;;;;12.32;65.04;100464.34;5038569;28;20029;-80
2022/04/06 00:20:50;;;;;;;0.10;0.10;;;;;;;12.23;65.47;100472.63;5031419;28;20734;-79
2022/04/06 00:23:16;;;;;;;0.10;0.10;;;;;;;12.34;65.06;100461.66;5029566;28;20105;-79
2022/04/06 00:25:42;;;;;;;0.10;0.10;;;;;;;12.27;64.92;100455.66;5032903;28;20025;-79
2022/04/06 00:28:08;;;;;;;8.68;1.05;;;;;;;12.25;65.65;100452.19;5038853;28;20051;-80
2022/04/06 00:30:35;;;;;;;0.30;0.30;;;;;;;12.19;64.93;100458.59;5038480;28;20053;-80
2022/04/06 00:33:01;;;;;;;0.10;0.10;;;;;;;12.21;65.75;100451.44;5037809;28;20063;-80
2022/04/06 00:35:28;;;;;;;0.20;0.20;;;;;;;12.30;65.31;100447.63;5033669;28;20107;-79
2022/04/06 00:37:56;;;;;;;0.00;0.00;;;;;;;12.37;64.96;100445.59;5037748;28;20108;-79
2022/04/06 00:40:23;;;;;;;0.22;0.22;;;;;;;12.35;64.56;100442.13;5036518;28;20025;-80
2022/04/06 00:42:50;;;;;;;0.77;0.77;;;;;;;12.37;64.78;100445.59;5029680;28;20057;-81
2022/04/06 00:45:16;;;;;;;0.10;0.10;;;;;;;12.35;64.48;100436.81;5033534;28;20076;-79
2022/04/06 00:47:43;;;;;;;0.00;0.00;;;;;;;12.34;64.36;100445.72;5025621;28;20040;-79
2022/04/06 00:50:09;;;;;;;0.10;0.10;;;;;;;12.48;64.11;100429.31;5033302;28;20037;-79
2022/04/06 00:52:38;;;;;;;0.10;0.10;;;;;;;12.42;64.57;100431.25;5026766;28;20038;-81
2022/04/06 00:55:05;;;;;;;0.10;0.10;;;;;;;12.38;64.07;100432.25;5034452;28;20405;-79
2022/04/06 00:57:32;;;;;;;0.10;0.10;;;;;;;12.41;63.88;100429.53;5031443;28;20471;-81
2022/04/06 00:59:58;;;;;;;0.10;0.10;;;;;;;12.42;63.43;100419.75;5031653;28;20021;-81
2022/04/06 01:02:25;;;;;;;0.10;0.10;;;;;;;12.33;63.98;100422.72;5038542;28;20044;-80
2022/04/06 01:04:51;;;;;;;0.77;0.77;;;;;;;12.30;63.82;100423.72;5027962;28;20033;-79
2022/04/06 01:07:19;;;;;;;0.00;0.00;;;;;;;12.35;63.27;100424.41;5030457;28;20037;-80
2022/04/06 01:09:46;;;;;;;0.00;0.00;;;;;;;12.44;62.90;100421.44;5041162;28;20029;-80
2022/04/06 01:12:14;;;;;;;0.43;0.43;;;;;;;12.39;63.42;100411.91;5032188;28;20033;-80
2022/04/06 01:14:41;;;;;;;0.10;0.10;;;;;;;12.37;63.15;100413.72;5034543;28;20054;-80
2022/04/06 01:17:08;;;;;;;0.32;0.32;;;;;;;12.45;62.91;100417.84;5036357;28;20042;-80
2022/04/06 01:19:39;;;;;;;0.30;0.30;;;;;;;12.42;62.66;100417.09;5029832;28;20109;-81
2022/04/06 01:24:46;;;;;;;0.08;0.08;;;;;;;12.41;63.08;100410.03;5096872;27;1245280;-79
2022/04/06 01:27:14;;;;;;;0.10;0.10;;;;;;;12.36;62.94;100404.00;5112339;28;20038;-80
2022/04/06 01:29:41;;;;;;;0.10;0.10;;;;;;;12.27;63.15;100413.16;5108027;28;20048;-79
2022/04/06 01:32:25;;;;;;;0.10;0.10;;;;;;;12.39;62.55;100406.59;5095818;28;20115;-80
2022/04/06 01:34:54;;;;;;;0.32;0.32;;;;;;;12.31;63.41;100406.81;5085134;28;20028;-78
2022/04/06 01:37:21;;;;;;;0.00;0.00;;;;;;;12.27;62.77;100414.06;5090501;28;20035;-79
2022/04/06 01:39:48;;;;;;;0.10;0.10;;;;;;;12.30;63.09;100407.78;5088810;28;20111;-78
2022/04/06 01:42:17;;;;;;;0.10;0.10;;;;;;;12.29;63.64;100412.19;5092389;28;20123;-79
2022/04/06 01:44:45;;;;;;;0.10;0.10;;;;;;;12.30;63.34;100398.00;5094837;28;20040;-78
2022/04/06 01:47:15;;;;;;;0.10;0.10;;;;;;;12.25;63.60;100402.59;5086294;28;20036;-78
2022/04/06 01:52:27;;;;;;;0.00;0.00;;;;;;;12.16;63.34;100408.22;5091454;28;20043;-79
2022/04/06 01:55:00;;;;;;;2.05;1.95;;;;;;;12.21;63.25;100406.28;5085182;28;20036;-78
2022/04/06 01:57:28;;;;;;;0.10;0.10;;;;;;;12.21;62.98;100408.94;5087359;28;20092;-79
2022/04/06 01:59:55;;;;;;;0.10;0.10;;;;;;;12.11;62.79;100403.06;5081068;28;20048;-79
2022/04/06 02:02:24;;;;;;;0.10;0.10;;;;;;;12.15;62.45;100403.84;5088701;28;20040;-79
2022/04/06 02:04:50;;;;;;;0.10;0.10;;;;;;;12.16;62.83;100405.56;5087652;28;20028;-77
2022/04/06 02:07:17;;;;;;;0.57;0.57;;;;;;;12.18;62.25;100398.41;5089298;28;20119;-79
2022/04/06 02:09:43;;;;;;;1.02;0.68;;;;;;;12.18;62.58;100389.59;5088471;28;20099;-79
2022/04/06 02:12:11;;;;;;;0.10;0.10;;;;;;;12.22;62.16;100393.88;5086843;28;20036;-78
2022/04/06 02:14:40;;;;;;;0.10;0.10;;;;;;;12.23;61.71;100395.59;5090269;28;20032;-78
2022/04/06 02:17:07;;;;;;;0.10;0.10;;;;;;;12.22;61.38;100397.38;5072978;22;20132;-78
2022/04/06 02:19:36;;;;;;;0.10;0.10;;;;;;;12.11;61.07;100391.56;5046755;28;20025;-78
2022/04/06 02:22:04;;;;;;;0.43;0.43;;;;;;;12.11;61.18;100387.13;5047477;28;20051;-78
2022/04/06 02:24:31;;;;;;;0.10;0.10;;;;;;;12.07;61.14;100389.94;5037814;28;20481;-77
2022/04/06 02:26:57;;;;;;;1.35;1.27;;;;;;;12.09;61.54;100393.44;5041835;28;20116;-76
2022/04/06 02:29:24;;;;;;;0.10;0.10;;;;;;;12.09;61.18;100382.81;5045528;28;20489;-77
2022/04/06 02:31:50;;;;;;;0.30;0.30;;;;;;;12.08;60.57;100383.72;5046888;28;20057;-77
2022/04/06 02:34:16;;;;;;;0.30;0.30;;;;;;;12.07;60.82;100374.00;5042606;28;20037;-77
2022/04/06 02:36:42;;;;;;;0.10;0.10;;;;;;;12.08;60.70;100371.28;5032045;28;20068;-78
2022/04/06 02:39:08;;;;;;;0.63;0.60;;;;;;;12.03;60.81;100364.41;5034688;28;20493;-78
2022/04/06 02:41:35;;;;;;;0.10;0.10;;;;;;;12.00;60.19;100364.50;5034328;28;20057;-78
2022/04/06 02:44:01;;;;;;;0.10;0.10;;;;;;;11.97;60.53;100366.38;5034275;28;20034;-77
2022/04/06 02:46:27;;;;;;;0.10;0.10;;;;;;;11.96;59.88;100355.78;5035023;28;20060;-77
2022/04/06 02:48:53;;;;;;;0.10;0.10;;;;;;;11.91;59.69;100358.56;5034296;28;20034;-77
2022/04/06 02:51:19;;;;;;;0.10;0.10;;;;;;;11.90;60.13;100346.22;5034575;28;20030;-77
2022/04/06 02:53:45;;;;;;;0.10;0.10;;;;;;;11.87;59.60;100345.44;5035545;28;20056;-77
2022/04/06 02:56:11;;;;;;;0.10;0.10;;;;;;;11.72;59.02;100342.38;5034948;28;20033;-78
2022/04/06 02:58:38;;;;;;;0.10;0.10;;;;;;;11.84;59.13;100351.72;5035255;28;20458;-77
2022/04/06 03:01:04;;;;;;;0.03;0.03;;;;;;;11.69;58.90;100358.41;5032184;28;20059;-76
2022/04/06 03:03:30;;;;;;;0.30;0.30;;;;;;;11.74;59.25;100339.66;5034856;28;20057;-77
2022/04/06 03:05:56;;;;;;;0.10;0.10;;;;;;;11.69;58.80;100331.88;5033829;28;20029;-78
2022/04/06 03:08:22;;;;;;;0.20;0.20;;;;;;;11.65;59.49;100331.09;5033679;28;20361;-77
2022/04/06 03:10:48;;;;;;;0.70;0.70;;;;;;;11.63;59.01;100326.75;5033699;28;20026;-78
2022/04/06 03:13:15;;;;;;;0.73;0.73;;;;;;;11.52;59.17;100329.75;5034563;28;20485;-77
2022/04/06 03:15:42;;;;;;;0.10;0.10;;;;;;;11.54;58.84;100327.03;5033977;28;20086;-78
2022/04/06 03:18:08;;;;;;;0.10;0.10;;;;;;;11.52;59.29;100324.44;5031597;28;20048;-78
2022/04/06 03:20:34;;;;;;;0.10;0.10;;;;;;;11.45;59.10;100328.22;5033074;28;20056;-78
2022/04/06 03:23:03;;;;;;;0.10;0.10;;;;;;;11.47;59.29;100321.06;5033261;28;20034;-78
2022/04/06 03:25:29;;;;;;;0.10;0.10;;;;;;;11.36;59.04;100320.56;5034219;28;20448;-78
2022/04/06 03:27:55;;;;;;;0.13;0.13;;;;;;;11.51;58.56;100327.16;5033713;28;20042;-78
2022/04/06 03:30:21;;;;;;;0.10;0.10;;;;;;;11.39;58.88;100317.78;5033764;28;20084;-78
2022/04/06 03:32:47;;;;;;;0.32;0.32;;;;;;;11.41;57.87;100321.28;5031965;28;20035;-78
2022/04/06 03:35:13;;;;;;;0.03;0.03;;;;;;;11.49;58.13;100309.50;5033702;28;20443;-78
2022/04/06 03:37:39;;;;;;;0.55;0.55;;;;;;;11.58;57.78;100313.63;5033480;28;20029;-79
2022/04/06 03:40:06;;;;;;;0.10;0.10;;;;;;;11.64;58.26;100315.25;5033501;28;20042;-76
2022/04/06 03:42:34;;;;;;;0.13;0.13;;;;;;;11.72;58.00;100314.97;5030441;28;20057;-76
2022/04/06 03:45:01;;;;;;;0.00;0.00;;;;;;;11.65;58.37;100315.19;5031597;28;20053;-77
2022/04/06 03:47:32;;;;;;;0.10;0.10;;;;;;;11.69;58.53;100315.06;5031765;28;20038;-77
2022/04/06 03:49:59;;;;;;;0.10;0.10;;;;;;;11.61;58.71;100302.94;5028722;28;20025;-77
2022/04/06 03:52:26;;;;;;;0.30;0.30;;;;;;;11.59;59.16;100314.50;5026627;28;20022;-77
2022/04/06 03:54:53;;;;;;;0.10;0.10;;;;;;;11.70;58.52;100307.06;5031378;28;20140;-77
2022/04/06 03:57:19;;;;;;;0.00;0.00;;;;;;;11.63;58.95;100305.53;5031914;28;20029;-77
2022/04/06 03:59:46;;;;;;;0.10;0.10;;;;;;;11.70;58.95;100306.19;5032264;28;20095;-77
2022/04/06 04:02:12;;;;;;;0.03;0.03;;;;;;;11.65;59.66;100299.25;5031632;28;20488;-77
2022/04/06 04:04:38;;;;;;;0.10;0.10;;;;;;;11.64;59.94;100294.88;5031027;28;20041;-77
2022/04/06 04:07:07;;;;;;;0.10;0.10;;;;;;;11.63;60.24;100308.19;5030954;28;20112;-77
2022/04/06 04:09:34;;;;;;;0.10;0.10;;;;;;;11.72;60.43;100297.25;5030678;28;20032;-77
2022/04/06 04:12:01;;;;;;;0.10;0.10;;;;;;;11.79;60.08;100298.78;5030926;28;20048;-77
2022/04/06 04:14:29;;;;;;;0.10;0.10;;;;;;;11.69;60.24;100299.13;5032179;28;20047;-77
2022/04/06 04:16:56;;;;;;;0.10;0.10;;;;;;;11.69;60.32;100288.53;5032695;28;20100;-77
2022/04/06 04:19:22;;;;;;;0.10;0.10;;;;;;;11.64;60.33;100281.59;5030996;28;20032;-77
2022/04/06 04:21:48;;;;;;;1.95;0.45;;;;;;;11.65;60.76;100279.78;5031374;28;20035;-77
2022/04/06 04:24:14;;;;;;;0.10;0.10;;;;;;;11.60;60.46;100279.97;5032225;28;20037;-78
2022/04/06 04:26:40;;;;;;;0.13;0.13;;;;;;;11.65;60.62;100279.78;5031980;28;20045;-77
2022/04/06 04:29:07;;;;;;;0.00;0.00;;;;;;;11.68;60.47;100278.84;5032233;28;20041;-77
2022/04/06 04:31:34;;;;;;;0.57;0.57;;;;;;;11.48;60.36;100265.31;5032490;28;20026;-77
2022/04/06 04:34:01;;;;;;;0.03;0.03;;;;;;;11.50;60.26;100275.88;5033155;28;20037;-77
2022/04/06 04:36:27;;;;;;;0.10;0.10;;;;;;;11.54;59.92;100266.03;5031894;28;20087;-76
2022/04/06 04:38:54;;;;;;;0.00;0.00;;;;;;;11.60;60.20;100269.34;5032313;28;20076;-77
2022/04/06 04:41:22;;;;;;;0.00;0.00;;;;;;;11.48;60.51;100275.91;5033739;28;20524;-78
2022/04/06 04:43:50;;;;;;;0.00;0.00;;;;;;;11.39;60.55;100248.81;5033548;28;20025;-77
2022/04/06 04:46:17;;;;;;;0.20;0.20;;;;;;;11.56;60.45;100259.75;5033609;28;20026;-78
2022/04/06 04:48:44;;;;;;;0.10;0.10;;;;;;;11.65;60.29;100246.19;5031262;28;20052;-78
2022/04/06 04:51:11;;;;;;;0.10;0.10;;;;;;;11.59;60.40;100251.69;5031169;28;20030;-78
2022/04/06 04:53:37;;;;;;;0.10;0.10;;;;;;;11.65;60.29;100266.53;5031827;28;20037;-78
2022/04/06 04:56:03;;;;;;;0.15;0.15;;;;;;;11.64;60.47;100246.25;5032607;28;20033;-78
2022/04/06 04:58:29;;;;;;;0.10;0.10;;;;;;;11.65;60.16;100246.19;5032396;28;20112;-78
2022/04/06 05:00:55;;;;;;;0.15;0.15;;;;;;;11.62;60.50;100248.06;5028235;28;20127;-78
2022/04/06 05:03:22;;;;;;;0.10;0.10;;;;;;;11.70;60.49;100237.19;5031167;28;20037;-78
2022/04/06 05:05:51;;;;;;;0.17;0.17;;;;;;;11.67;60.63;100246.13;5023309;28;20370;-77
2022/04/06 05:08:17;;;;;;;0.10;0.10;;;;;;;11.66;60.48;100239.06;5031267;28;20017;-78
2022/04/06 05:10:44;;;;;;;0.00;0.00;;;;;;;11.69;60.67;100240.75;5031082;28;20511;-78
2022/04/06 05:13:13;;;;;;;0.10;0.10;;;;;;;11.76;60.39;100239.63;5031962;28;20682;-78
2022/04/06 05:15:39;;;;;;;0.00;0.00;;;;;;;11.72;60.32;100230.06;5031166;28;20041;-77
2022/04/06 05:18:05;;;;;;;0.00;0.00;;;;;;;11.54;61.30;100229.75;5028739;28;20040;-78
2022/04/06 05:20:32;;;;;;;0.00;0.00;;;;;;;11.68;60.78;100233.75;5030246;28;20113;-78
2022/04/06 05:22:58;;;;;;;0.10;0.10;;;;;;;11.72;60.86;100225.59;5027664;28;20033;-78
2022/04/06 05:25:24;;;;;;;1.48;1.38;;;;;;;11.60;60.80;100226.03;5031320;28;20029;-78
2022/04/06 05:27:53;;;;;;;0.03;0.03;;;;;;;11.68;60.95;100234.59;5030342;28;20128;-78
2022/04/06 05:30:21;;;;;;;0.00;0.00;;;;;;;11.84;61.14;100224.31;5032329;28;20052;-78
2022/04/06 05:32:49;;;;;;;0.10;0.10;;;;;;;11.90;60.67;100223.22;5030358;28;20053;-78
2022/04/06 05:35:15;;;;;;;4.00;1.58;;;;;;;11.68;61.13;100234.59;5031162;28;20496;-78
2022/04/06 05:37:43;;;;;;;0.10;0.10;;;;;;;11.69;61.60;100238.09;5022667;28;20037;-78
2022/04/06 05:40:12;;;;;;;0.30;0.30;;;;;;;11.78;61.13;100243.97;5029252;28;20101;-78
2022/04/06 05:42:38;;;;;;;0.10;0.10;;;;;;;11.81;61.22;100233.25;5031798;28;20094;-78
2022/04/06 05:45:06;;;;;;;2.53;2.33;;;;;;;11.87;60.92;100242.78;5034020;28;20511;-78
2022/04/06 05:47:33;;;;;;;0.00;0.00;;;;;;;11.85;60.90;100236.69;5029299;28;20030;-78
2022/04/06 05:50:00;;;;;;;0.10;0.10;;;;;;;11.87;60.56;100248.09;5026055;28;20428;-79
2022/04/06 05:52:26;;;;;;;0.10;0.10;;;;;;;11.85;60.09;100236.69;5032008;28;20037;-79
2022/04/06 05:54:52;;;;;;;0.00;0.00;;;;;;;11.90;59.98;100229.41;5032331;28;20037;-80
2022/04/06 05:57:20;;;;;;;0.10;0.10;;;;;;;11.93;59.83;100234.59;5034759;28;20036;-80
2022/04/06 05:59:46;;;;;;;0.08;0.08;;;;;;;11.82;59.54;100236.75;5034214;28;20084;-80
2022/04/06 06:02:13;;;;;;;0.10;0.10;;;;;;;11.82;58.98;100236.75;5035805;28;20022;-84
2022/04/06 06:04:40;;;;;;;0.82;0.63;;;;;;;11.87;58.88;100226.84;5033139;28;20053;-78
2022/04/06 06:07:06;;;;;;;0.38;0.38;;;;;;;11.92;58.65;100226.69;5028845;28;20040;-78
2022/04/06 06:09:33;;;;;;;0.10;0.10;;;;;;;11.97;58.14;100217.69;5030937;28;20030;-77
2022/04/06 06:12:00;;;;;;;0.10;0.10;;;;;;;11.99;58.11;100222.94;5031361;28;20044;-78
2022/04/06 06:14:26;;;;;;;0.10;0.10;;;;;;;11.93;57.72;100228.44;5036142;28;20112;-78
2022/04/06 06:16:53;;;;;;;0.03;0.03;;;;;;;12.03;57.52;100223.69;5034628;28;20097;-77
2022/04/06 06:19:19;;;;;;;0.73;0.73;;;;;;;12.13;57.12;100223.28;5034508;28;20025;-78
2022/04/06 06:21:46;;;;;;;0.65;0.65;;;;;;;12.09;56.44;100224.34;5034971;28;20040;-77
2022/04/06 06:24:12;;;;;;;0.10;0.10;;;;;;;12.05;56.59;100220.06;5035374;28;20032;-77
2022/04/06 06:26:42;;;;;;;0.10;0.10;;;;;;;11.98;57.04;100221.19;5035554;28;20037;-78
2022/04/06 06:29:08;;;;;;;0.10;0.10;;;;;;;12.01;57.18;100212.25;5033798;28;21466;-78
2022/04/06 06:31:35;;;;;;;0.03;0.03;;;;;;;11.99;56.93;100209.66;5034354;28;20041;-78
2022/04/06 06:34:01;;;;;;;0.10;0.10;;;;;;;12.06;56.32;100215.59;5036093;28;20032;-78
2022/04/06 06:36:28;;;;;;;0.05;0.05;;;;;;;12.08;56.21;100206.66;5035844;28;20052;-78
2022/04/06 06:38:55;;;;;;;0.10;0.10;;;;;;;12.13;56.44;100219.78;5035943;28;20037;-78
2022/04/06 06:41:22;;;;;;;0.10;0.10;;;;;;;12.18;56.93;100201.88;5035883;28;20034;-78
2022/04/06 06:43:50;;;;;;;0.10;0.10;;;;;;;12.22;56.61;100216.78;5034464;28;20485;-77
2022/04/06 06:46:18;;;;;;;0.03;0.03;;;;;;;12.19;56.71;100210.75;5035510;28;20040;-78
2022/04/06 06:48:45;;;;;;;0.00;0.00;;;;;;;12.29;56.26;100189.06;5036312;28;20025;-78
2022/04/06 06:51:13;;;;;;;0.10;0.10;;;;;;;12.29;57.05;100202.34;5036536;28;20421;-78
2022/04/06 06:53:39;;;;;;;5.15;2.28;;;;;;;12.12;57.14;100207.41;5036211;28;20179;-77
2022/04/06 06:56:06;;;;;;;0.10;0.10;;;;;;;12.18;57.11;100207.19;5036260;28;20052;-77
2022/04/06 06:58:32;;;;;;;0.08;0.08;;;;;;;12.35;57.22;100195.06;5037607;28;20083;-78
2022/04/06 07:00:58;;;;;;;0.10;0.10;;;;;;;12.41;57.98;100192.19;5032958;28;20033;-77
2022/04/06 07:03:24;;;;;;;0.03;0.03;;;;;;;12.28;58.54;100182.00;5035760;28;20497;-78
2022/04/06 07:05:50;;;;;;;0.00;0.00;;;;;;;12.38;58.89;100187.84;5035819;28;20504;-77
2022/04/06 07:08:16;;;;;;;0.10;0.10;;;;;;;12.12;59.56;100189.72;5033747;28;20030;-77
2022/04/06 07:10:45;;;;;;;0.13;0.13;;;;;;;12.14;59.86;100173.72;5033819;28;20028;-77
2022/04/06 07:13:12;;;;;;;0.00;0.00;;;;;;;12.09;61.18;100189.81;5032417;28;20036;-77
2022/04/06 07:15:39;;;;;;;0.10;0.10;;;;;;;12.07;61.50;100193.44;5034226;28;20037;-77
2022/04/06 07:18:07;;;;;;;0.10;0.10;;;;;;;12.02;61.66;100193.59;5036106;28;20120;-78
2022/04/06 07:20:35;;;;;;;9.95;1.23;;;;;;;11.95;62.42;100208.88;5037138;28;20373;-78
2022/04/06 07:23:03;;;;;;;0.00;0.00;;;;;;;11.82;62.54;100203.16;5036424;28;20503;-78
2022/04/06 07:25:30;;;;;;;0.10;0.10;;;;;;;11.86;62.84;100198.56;5035943;28;20047;-77
2022/04/06 07:27:56;;;;;;;0.13;0.13;;;;;;;11.81;64.02;100181.94;5034908;28;20075;-78
2022/04/06 07:30:22;;;;;;;0.20;0.20;;;;;;;11.92;63.62;100190.38;5035943;28;20060;-78
2022/04/06 07:32:48;;;;;;;0.10;0.10;;;;;;;11.80;63.51;100183.75;5035621;28;20036;-78
2022/04/06 07:35:16;;;;;;;5.47;0.98;;;;;;;11.79;63.21;100181.16;5035371;28;20029;-79
2022/04/06 07:37:44;;;;;;;0.10;0.10;;;;;;;11.72;62.98;100187.59;5035362;28;20403;-78
2022/04/06 07:40:12;;;;;;;0.10;0.10;;;;;;;11.70;63.54;100190.31;5035850;28;20057;-78
2022/04/06 07:42:39;;;;;;;0.10;0.10;;;;;;;11.79;64.56;100179.34;5034339;28;20052;-79
2022/04/06 07:45:08;;;;;;;0.13;0.13;;;;;;;11.82;64.33;100184.56;5037545;28;20041;-80
2022/04/06 07:47:35;;;;;;;0.10;0.10;;;;;;;11.75;65.50;100187.47;5038161;28;20049;-79
2022/04/06 07:50:03;;;;;;;0.10;0.10;;;;;;;11.67;65.84;100174.47;5036747;28;20099;-79
2022/04/06 07:52:31;;;;;;;0.00;0.00;;;;;;;11.70;65.70;100181.47;5036087;28;20026;-78
2022/04/06 07:54:57;;;;;;;0.80;0.80;;;;;;;11.41;67.12;100186.00;5035487;28;20025;-78
2022/04/06 07:57:24;;;;;;;0.10;0.10;;;;;;;11.35;67.75;100172.94;5034001;28;20116;-77
2022/04/06 07:59:52;;;;;;;5.15;1.83;;;;;;;11.50;66.95;100161.78;5034680;28;20492;-77
2022/04/06 08:02:18;;;;;;;0.10;0.10;;;;;;;11.54;67.37;100163.44;5033499;28;20029;-78
2022/04/06 08:04:44;;;;;;;0.10;0.10;;;;;;;11.37;68.17;100158.72;5034003;28;20085;-78
2022/04/06 08:07:11;;;;;;;0.20;0.20;;;;;;;11.49;68.04;100160.94;5033331;28;20497;-79
2022/04/06 08:09:37;;;;;;;0.10;0.10;;;;;;;11.55;67.67;100151.91;5032640;28;20048;-79
2022/04/06 08:12:03;;;;;;;0.08;0.08;;;;;;;11.53;67.75;100153.75;5032830;28;20079;-79
2022/04/06 08:14:30;;;;;;;0.10;0.10;;;;;;;11.52;68.64;100149.34;5034042;28;20025;-79
2022/04/06 08:16:56;;;;;;;0.10;0.10;;;;;;;11.52;68.55;100141.41;5033719;28;20103;-81
2022/04/06 08:19:24;;;;;;;0.10;0.10;;;;;;;11.53;68.12;100158.19;5034036;28;20378;-77
2022/04/06 08:21:51;;;;;;;0.10;0.10;;;;;;;11.60;68.30;100142.00;5033376;28;20481;-79
2022/04/06 08:24:18;;;;;;;0.10;0.10;;;;;;;11.52;68.03;100152.00;5033055;28;20038;-80
2022/04/06 08:26:44;;;;;;;0.03;0.03;;;;;;;11.61;68.36;100146.38;5033873;28;20072;-80
2022/04/06 08:29:15;;;;;;;0.10;0.10;;;;;;;11.55;67.99;100156.34;5034365;28;20049;-80
2022/04/06 08:31:42;;;;;;;0.10;0.10;;;;;;;11.49;68.09;100150.31;5033617;28;20507;-77
2022/04/06 08:34:08;;;;;;;0.10;0.10;;;;;;;11.57;68.48;100151.84;5032204;28;20434;-77
2022/04/06 08:36:34;;;;;;;0.35;0.35;;;;;;;11.62;67.96;100152.56;5028890;28;20100;-77
2022/04/06 08:39:02;;;;;;;7.97;3.13;;;;;;;11.64;68.08;100156.03;5031171;28;20489;-78
2022/04/06 08:41:30;;;;;;;0.10;0.10;;;;;;;11.56;68.78;100145.66;5033959;28;20485;-81
2022/04/06 08:44:04;;;;;;;0.10;0.10;;;;;;;11.64;69.06;100154.22;5037912;28;20026;-82
2022/04/06 08:46:34;;;;;;;0.10;0.10;;;;;;;11.62;69.21;100145.44;5039549;28;20105;-82
2022/04/06 08:49:01;;;;;;;0.10;0.10;;;;;;;11.54;69.89;100147.53;5037624;28;20025;-81
2022/04/06 08:51:29;;;;;;;0.65;0.35;;;;;;;11.47;70.28;100151.31;5031899;28;20096;-81
2022/04/06 08:53:55;;;;;;;0.10;0.10;;;;;;;11.51;70.21;100141.44;5040735;28;20025;-80
2022/04/06 08:56:22;;;;;;;0.10;0.10;;;;;;;11.40;70.65;100139.16;5036769;28;20029;-81
2022/04/06 08:58:48;;;;;;;0.10;0.10;;;;;;;11.35;71.16;100135.81;5036310;28;20061;-86
2022/04/06 09:01:14;;;;;;;0.10;0.10;;;;;;;11.43;70.64;100136.41;5034909;28;20182;-81
2022/04/06 09:03:41;;;;;;;0.10;0.10;;;;;;;11.39;70.83;100138.31;5036695;28;20538;-78
2022/04/06 09:08:47;;;;;;;0.10;0.10;;;;;;;11.39;71.46;100127.69;5083934;27;20352;-77
2022/04/06 09:11:16;;;;;;;0.20;0.20;;;;;;;11.52;71.23;100128.13;5086527;28;20028;-76
2022/04/06 09:13:44;;;;;;;0.10;0.10;;;;;;;11.52;71.13;100127.28;5083890;28;20497;-77
2022/04/06 09:16:13;;;;;;;0.95;0.95;;;;;;;11.45;71.50;100131.91;5085169;28;20028;-77
2022/04/06 09:18:43;;;;;;;0.25;0.25;;;;;;;11.49;71.34;100137.06;5087194;28;20052;-78
2022/04/06 09:21:10;;;;;;;0.10;0.10;;;;;;;11.48;71.58;100137.13;5086885;28;20029;-76
2022/04/06 09:23:37;;;;;;;0.00;0.00;;;;;;;11.60;71.22;100142.00;5086818;28;20042;-76
2022/04/06 09:26:06;;;;;;;0.10;0.10;;;;;;;11.55;71.55;100137.75;5086435;28;20028;-77
2022/04/06 09:28:37;;;;;;;0.10;0.10;;;;;;;11.56;71.52;100136.84;5087283;28;20025;-78
2022/04/06 09:31:04;;;;;;;0.10;0.10;;;;;;;11.55;71.33;100145.72;5087698;28;20024;-78
2022/04/06 09:33:30;;;;;;;0.20;0.20;;;;;;;11.63;70.84;100141.88;5087692;28;20121;-78
2022/04/06 09:35:58;;;;;;;0.10;0.10;;;;;;;11.63;71.08;100130.41;5087891;28;20571;-78
2022/04/06 09:38:27;;;;;;;0.10;0.10;;;;;;;11.61;70.71;100138.44;5084691;28;20035;-77
2022/04/06 09:41:14;;;;;;;0.10;0.10;;;;;;;11.76;70.47;100139.66;5085605;28;20028;-77
2022/04/06 09:43:40;;;;;;;0.00;0.00;;;;;;;11.80;70.61;100124.47;5086589;28;20035;-77
2022/04/06 09:49:19;;;;;;;0.35;0.35;;;;;;;11.89;70.21;100137.41;5080934;28;20033;-78
2022/04/06 09:51:51;;;;;;;0.10;0.10;;;;;;;11.94;69.84;100119.53;5086083;28;20130;-75
2022/04/06 09:54:18;;;;;;;0.25;0.25;;;;;;;11.83;70.05;100121.72;5087180;28;20032;-76
2022/04/06 09:56:44;;;;;;;0.63;0.63;;;;;;;12.08;69.39;100127.00;5086754;28;20418;-77
2022/04/06 09:59:13;;;;;;;0.00;0.00;;;;;;;12.03;69.39;100121.00;5087208;28;20031;-77
2022/04/06 10:04:23;;;;;;;0.50;0.50;;;;;;;12.05;69.85;100116.50;5111988;27;20384;-81
2022/04/06 10:06:49;;;;;;;0.10;0.10;;;;;;;12.16;69.53;100113.44;5093699;28;20032;-80
2022/04/06 10:09:15;;;;;;;0.10;0.10;;;;;;;12.20;68.88;100115.06;5092359;28;20024;-81
2022/04/06 10:11:42;;;;;;;0.32;0.32;;;;;;;12.30;68.49;100116.44;5093496;28;20047;-81
2022/04/06 10:14:10;;;;;;;0.10;0.10;;;;;;;12.36;68.13;100128.63;5098253;28;20036;-81
2022/04/06 10:16:38;;;;;;;0.10;0.10;;;;;;;12.40;68.14;100094.81;5113465;28;20032;-81
2022/04/06 10:19:13;;;;;;;0.38;0.38;;;;;;;12.44;67.89;100101.75;5116505;28;20042;-82
2022/04/06 10:21:53;;;;;;;0.10;0.10;;;;;;;12.69;67.28;100090.97;5114034;28;20484;-81
2022/04/06 10:24:55;;;;;;;0.20;0.20;;;;;;;12.95;66.79;100083.72;5113662;28;20020;-78
2022/04/06 10:27:29;;;;;;;0.10;0.10;;;;;;;12.71;66.90;100094.44;5112568;28;20495;-80
2022/04/06 10:32:50;;;;;;;0.68;0.68;;;;;;;12.70;65.99;100076.78;5109371;27;20388;-77
2022/04/06 10:35:34;;;;;;;0.00;0.00;;;;;;;12.86;65.85;100087.63;5107430;28;20024;-78
2022/04/06 10:46:32;;;;;;;0.17;0.17;;;;;;;13.03;64.84;100062.97;5113240;27;20351;-79
2022/04/06 10:49:15;;;;;;;0.25;0.25;;;;;;;13.11;64.47;100054.69;5092370;28;20499;-80
2022/04/06 10:51:44;;;;;;;0.63;0.63;;;;;;;12.88;64.82;100059.19;5092287;28;20036;-80
2022/04/06 10:59:28;;;;;;;0.10;0.10;;;;;;;13.10;63.79;100059.13;5049338;28;20170;-79
2022/04/06 11:02:24;;;;;;;0.10;0.10;;;;;;;13.17;63.04;100033.16;5049190;28;20056;-79
2022/04/06 11:04:50;;;;;;;0.10;0.10;;;;;;;13.30;63.30;100028.16;5044005;28;20484;-79
2022/04/06 11:10:06;;;;;;;0.30;0.30;;;;;;;13.42;63.37;100032.06;5051537;28;20037;-78
2022/04/06 11:10:15;;;;;;;0.20;0.20;;;;;;;13.50;62.50;100029.94;5052185;28;20033;-79
2022/04/06 11:13:03;;;;;;;0.10;0.10;;;;;;;13.61;63.42;100034.78;5050883;28;20033;-79
2022/04/06 11:15:40;;;;;;;0.10;0.10;;;;;;;13.53;63.08;100024.50;5049975;28;20025;-79
2022/04/06 11:18:27;;;;;;;0.00;0.00;;;;;;;13.49;63.39;100028.19;5050335;28;20025;-79
2022/04/06 11:21:01;;;;;;;0.10;0.10;;;;;;;13.49;63.28;100017.56;5044127;28;20033;-79
2022/04/06 11:23:29;;;;;;;0.10;0.10;;;;;;;13.50;63.03;100029.94;5051944;28;20512;-79
2022/04/06 11:25:59;;;;;;;0.10;0.10;;;;;;;13.56;63.53;100034.97;5050498;28;20029;-78
2022/04/06 11:28:28;;;;;;;0.30;0.30;;;;;;;13.43;63.63;100010.72;5047358;28;20532;-78
2022/04/06 11:30:54;;;;;;;0.10;0.10;;;;;;;13.54;63.46;100004.91;5048002;28;20052;-79
2022/04/06 11:33:20;;;;;;;0.10;0.10;;;;;;;13.21;64.89;100016.13;5048926;28;20386;-79
2022/04/06 11:35:46;;;;;;;0.10;0.10;;;;;;;13.25;65.93;100004.41;5049257;28;20033;-79
2022/04/06 11:38:12;;;;;;;0.10;0.10;;;;;;;13.14;66.21;100021.78;5049146;28;20041;-79
2022/04/06 11:40:39;;;;;;;0.20;0.20;;;;;;;13.08;66.01;100015.81;5049854;28;20044;-79
2022/04/06 11:43:06;;;;;;;0.15;0.15;;;;;;;12.97;67.09;100010.06;5048710;28;20032;-79
2022/04/06 11:45:40;;;;;;;1.65;1.55;;;;;;;12.85;67.63;100023.91;5049242;28;20037;-79
2022/04/06 11:48:07;;;;;;;0.00;0.00;;;;;;;12.86;67.82;100013.19;5049353;28;20025;-78
2022/04/06 11:53:15;;;;;;;0.00;0.00;;;;;;;12.85;67.58;100005.31;5090987;27;20404;-79
2022/04/06 11:55:51;;;;;;;0.10;0.10;;;;;;;12.97;67.20;100011.88;5071993;28;20033;-78
2022/04/06 12:03:47;;;;;;;0.10;0.10;;;;;;;13.03;67.06;99971.72;5110146;27;20380;-77
2022/04/06 12:06:14;;;;;;;0.28;0.28;;;;;;;13.05;67.58;99980.50;5108903;28;20042;-77